Terminal Aerodrome Forecast
Issued by NWS

Home | Current Version | Previous Version | Text Only | Print | Product List | Glossary On
Versions: 1 2 3 4 5 6 7 8 9 10 11 12 13
975
FTUS45 KTFX 262320
TAFBZN
TAF
KBZN 262320Z 2700/2724 VRB05KT P6SM VCTS SCT080CB BKN140
      TEMPO 2700/2702 VRB25G40KT 6SM TSRA BKN060CB
     FM270400 VRB05KT P6SM SCT090
     FM272200 VRB05KT P6SM VCTS SCT080CB=

USA.gov is the U.S. government's official web portal to all federal, state and local government web resources and services.